^^
Meteo Knjazevac Station Historical Data
Daily Summary for August 09, 2022 Units:  Metric    English   Both
Daily Weekly Monthly Yearly Custom
  High: Low: Average:
Temperature: 33.3 °C 19.6 °C 25.6 °C
Dew Point: 20.9 °C 16.3 °C 18.2 °C
Humidity: 86% 39% 66%
Wind Speed: 12.9km/h 0km/h 3.9km/h
Wind Gust: 25.7km/h - -
Wind- - South
Pressure: 1019.9 hPa 1016.5 hPa -
Precipitation: 0 mm    
Historical Graphs
 
 
Tabular Data for August 09, 2022
Time Temperature Dew Point Pressure Wind Wind Speed Wind Gust Humidity Rainfall Rate (Hourly) solar Conditions
00:00 21.4 °C 16.6 °C 1018.5 hPa North 3.2 km/h 8 km/h 74% 0 mm 0 W/m2
00:05 21.3 °C 16.7 °C 1018.5 hPa Calm   4.8 km/h 75% 0 mm 0 W/m2
00:10 21.2 °C 16.6 °C 1018.5 hPa NE 1.6 km/h 3.2 km/h 75% 0 mm 0 W/m2
00:15 21.2 °C 16.6 °C 1018.5 hPa NW 1.6 km/h 3.2 km/h 75% 0 mm 0 W/m2
00:20 21.1 °C 16.5 °C 1018.5 hPa WSW 1.6 km/h 3.2 km/h 75% 0 mm 0 W/m2
00:25 21 °C 16.8 °C 1018.5 hPa Calm   3.2 km/h 77% 0 mm 0 W/m2
00:30 20.9 °C 16.7 °C 1018.5 hPa SE 3.2 km/h 8 km/h 77% 0 mm 0 W/m2
00:35 20.8 °C 16.6 °C 1018.5 hPa Calm   3.2 km/h 77% 0 mm 0 W/m2
00:40 20.8 °C 16.8 °C 1018.5 hPa East 3.2 km/h 8 km/h 78% 0 mm 0 W/m2
00:45 20.7 °C 16.7 °C 1018.5 hPa SSE 1.6 km/h 4.8 km/h 78% 0 mm 0 W/m2
00:55 20.5 °C 16.6 °C 1018.5 hPa West 1.6 km/h 3.2 km/h 78% 0 mm 0 W/m2
01:00 20.4 °C 16.4 °C 1018.5 hPa Calm   3.2 km/h 78% 0 mm 0 W/m2
01:05 20.4 °C 16.6 °C 1018.5 hPa Calm     79% 0 mm 0 W/m2
01:15 20.3 °C 16.6 °C 1018.5 hPa WNW 1.6 km/h 3.2 km/h 79% 0 mm 0 W/m2
01:25 20.1 °C 16.3 °C 1018.5 hPa Calm   3.2 km/h 79% 0 mm 0 W/m2
01:30 20.1 °C 16.3 °C 1018.5 hPa WNW 1.6 km/h 3.2 km/h 79% 0 mm 0 W/m2
01:35 20.1 °C 16.3 °C 1018.8 hPa Calm   3.2 km/h 79% 0 mm 0 W/m2
01:40 20.1 °C 16.6 °C 1018.8 hPa Calm   3.2 km/h 80% 0 mm 0 W/m2
01:45 20 °C 16.4 °C 1018.8 hPa Calm   3.2 km/h 80% 0 mm 0 W/m2
01:50 20.1 °C 16.6 °C 1018.8 hPa Calm   3.2 km/h 80% 0 mm 0 W/m2
01:55 20.1 °C 16.6 °C 1018.8 hPa Calm   1.6 km/h 80% 0 mm 0 W/m2
02:00 20.1 °C 16.6 °C 1018.8 hPa Calm   3.2 km/h 80% 0 mm 0 W/m2
02:05 20.1 °C 16.6 °C 1018.8 hPa Calm   4.8 km/h 80% 0 mm 0 W/m2
02:10 20.1 °C 16.7 °C 1018.8 hPa ESE 1.6 km/h 4.8 km/h 81% 0 mm 0 W/m2
02:15 20.1 °C 16.7 °C 1018.8 hPa SE 3.2 km/h 6.4 km/h 81% 0 mm 0 W/m2
02:25 20 °C 16.6 °C 1018.8 hPa NE 1.6 km/h 4.8 km/h 81% 0 mm 0 W/m2
02:30 20.1 °C 16.7 °C 1018.8 hPa ENE 1.6 km/h 4.8 km/h 81% 0 mm 0 W/m2
02:35 20.1 °C 16.7 °C 1018.8 hPa NNE 1.6 km/h 3.2 km/h 81% 0 mm 0 W/m2
02:40 20.2 °C 16.6 °C 1018.8 hPa NW 3.2 km/h 4.8 km/h 80% 0 mm 0 W/m2
02:50 20.3 °C 16.9 °C 1018.8 hPa West 1.6 km/h 3.2 km/h 81% 0 mm 0 W/m2
03:00 20.3 °C 16.8 °C 1018.8 hPa Calm   3.2 km/h 80% 0 mm 0 W/m2
03:05 20.4 °C 16.8 °C 1018.8 hPa Calm   3.2 km/h 80% 0 mm 0 W/m2
03:10 20.4 °C 16.8 °C 1018.8 hPa Calm   3.2 km/h 80% 0 mm 0 W/m2
03:15 20.4 °C 16.8 °C 1018.8 hPa WNW 1.6 km/h 3.2 km/h 80% 0 mm 0 W/m2
03:20 20.4 °C 16.8 °C 1018.8 hPa NW 1.6 km/h 3.2 km/h 80% 0 mm 0 W/m2
03:25 20.5 °C 16.9 °C 1018.8 hPa WNW 1.6 km/h 3.2 km/h 80% 0 mm 0 W/m2
03:30 20.5 °C 16.9 °C 1018.8 hPa WNW 1.6 km/h 3.2 km/h 80% 0 mm 0 W/m2
03:35 20.4 °C 16.8 °C 1018.8 hPa Calm   3.2 km/h 80% 0 mm 0 W/m2
03:40 20.5 °C 16.9 °C 1018.8 hPa Calm   3.2 km/h 80% 0 mm 0 W/m2
03:45 20.5 °C 16.9 °C 1018.5 hPa WNW 1.6 km/h 3.2 km/h 80% 0 mm 0 W/m2
03:50 20.5 °C 16.9 °C 1018.5 hPa Calm   3.2 km/h 80% 0 mm 0 W/m2
04:00 20.5 °C 17.1 °C 1018.5 hPa WNW 1.6 km/h 3.2 km/h 81% 0 mm 0 W/m2
04:10 20.4 °C 17.1 °C 1018.5 hPa Calm   1.6 km/h 81% 0 mm 0 W/m2
04:15 20.4 °C 17.1 °C 1018.5 hPa WSW 1.6 km/h 3.2 km/h 81% 0 mm 0 W/m2
04:20 20.3 °C 16.9 °C 1018.5 hPa Calm   3.2 km/h 81% 0 mm 0 W/m2
04:25 20.2 °C 16.9 °C 1018.5 hPa Calm   3.2 km/h 81% 0 mm 0 W/m2
04:30 20.2 °C 16.8 °C 1018.5 hPa Calm   3.2 km/h 81% 0 mm 0 W/m2
04:35 20.1 °C 16.9 °C 1018.5 hPa WNW 1.6 km/h 3.2 km/h 82% 0 mm 0 W/m2
04:40 20.1 °C 17.1 °C 1018.5 hPa NW 3.2 km/h 3.2 km/h 83% 0 mm 0 W/m2
04:45 20.1 °C 16.9 °C 1018.8 hPa Calm   3.2 km/h 82% 0 mm 0 W/m2
04:50 20.1 °C 16.7 °C 1018.5 hPa Calm   1.6 km/h 81% 0 mm 0 W/m2
04:55 20.1 °C 16.9 °C 1018.5 hPa NW 1.6 km/h 3.2 km/h 82% 0 mm 0 W/m2
05:00 20.2 °C 17 °C 1018.5 hPa Calm   3.2 km/h 82% 0 mm 0 W/m2
05:05 20.2 °C 17.2 °C 1018.5 hPa Calm   3.2 km/h 83% 0 mm 0 W/m2
05:10 20.1 °C 17.1 °C 1018.5 hPa Calm   3.2 km/h 83% 0 mm 0 W/m2
05:15 20.1 °C 17.1 °C 1018.5 hPa Calm   3.2 km/h 83% 0 mm 0 W/m2
05:20 20 °C 17 °C 1018.5 hPa Calm   1.6 km/h 83% 0 mm 0 W/m2
05:25 19.9 °C 16.9 °C 1018.8 hPa Calm   3.2 km/h 83% 0 mm 0 W/m2
05:30 19.9 °C 17.1 °C 1018.5 hPa Calm   1.6 km/h 84% 0 mm 2 W/m2
05:35 19.8 °C 17 °C 1018.5 hPa WSW 1.6 km/h 3.2 km/h 84% 0 mm 3 W/m2
05:45 19.7 °C 16.9 °C 1018.5 hPa Calm     84% 0 mm 8 W/m2
05:55 19.7 °C 17.1 °C 1018.8 hPa Calm   3.2 km/h 85% 0 mm 18 W/m2
06:00 19.6 °C 17 °C 1018.5 hPa Calm   1.6 km/h 85% 0 mm 24 W/m2
06:05 19.6 °C 17 °C 1018.8 hPa Calm   3.2 km/h 85% 0 mm 30 W/m2
06:10 19.6 °C 17 °C 1018.8 hPa NW 3.2 km/h 4.8 km/h 85% 0 mm 38 W/m2
06:20 19.8 °C 17.3 °C 1018.8 hPa NNE 3.2 km/h 8 km/h 85% 0 mm 38 W/m2
06:25 19.9 °C 17.3 °C 1018.8 hPa NNE 1.6 km/h 6.4 km/h 85% 0 mm 39 W/m2
06:35 19.8 °C 17.2 °C 1019.2 hPa Calm   3.2 km/h 85% 0 mm 44 W/m2
06:45 19.6 °C 17.2 °C 1019.2 hPa NNE 1.6 km/h 3.2 km/h 86% 0 mm 51 W/m2
06:50 19.6 °C 17 °C 1019.2 hPa Calm   3.2 km/h 85% 0 mm 53 W/m2
06:55 19.6 °C 17.2 °C 1019.5 hPa Calm   3.2 km/h 86% 0 mm 53 W/m2
07:00 19.6 °C 17.2 °C 1019.5 hPa Calm   3.2 km/h 86% 0 mm 60 W/m2
07:05 19.6 °C 17.2 °C 1019.5 hPa Calm   3.2 km/h 86% 0 mm 72 W/m2
07:20 19.8 °C 17.4 °C 1019.9 hPa SW 1.6 km/h 3.2 km/h 86% 0 mm 92 W/m2
07:30 19.9 °C 17.5 °C 1019.9 hPa WSW 1.6 km/h 4.8 km/h 86% 0 mm 100 W/m2
07:35 20 °C 17.6 °C 1019.9 hPa Calm   3.2 km/h 86% 0 mm 91 W/m2
07:40 20 °C 17.4 °C 1019.9 hPa West 3.2 km/h 4.8 km/h 85% 0 mm 82 W/m2
07:45 20.1 °C 17.5 °C 1019.9 hPa Calm   3.2 km/h 85% 0 mm 95 W/m2
07:50 20.1 °C 17.5 °C 1019.9 hPa Calm   3.2 km/h 85% 0 mm 248 W/m2
07:55 20.2 °C 17.6 °C 1019.9 hPa Calm   3.2 km/h 85% 0 mm 126 W/m2
08:00 20.4 °C 17.8 °C 1019.9 hPa Calm   1.6 km/h 85% 0 mm 131 W/m2
08:05 20.5 °C 18.1 °C 1019.9 hPa SW 1.6 km/h 3.2 km/h 86% 0 mm 156 W/m2
08:10 20.7 °C 18.1 °C 1019.9 hPa WSW 1.6 km/h 3.2 km/h 85% 0 mm 169 W/m2
08:15 20.9 °C 18.3 °C 1019.9 hPa NW 1.6 km/h 4.8 km/h 85% 0 mm 254 W/m2
08:20 21.1 °C 18.3 °C 1019.9 hPa Calm   3.2 km/h 84% 0 mm 312 W/m2
08:25 21.4 °C 18.7 °C 1019.9 hPa Calm   6.4 km/h 84% 0 mm 340 W/m2
08:30 21.7 °C 18.7 °C 1019.9 hPa NNE 1.6 km/h 4.8 km/h 83% 0 mm 235 W/m2
08:35 21.9 °C 18.7 °C 1019.9 hPa NE 1.6 km/h 8 km/h 82% 0 mm 225 W/m2
08:40 22.1 °C 18.7 °C 1019.9 hPa NE 4.8 km/h 8 km/h 81% 0 mm 525 W/m2
08:45 22.5 °C 18.9 °C 1019.9 hPa NE 1.6 km/h 8 km/h 80% 0 mm 539 W/m2
08:50 23.1 °C 19.2 °C 1019.9 hPa East 3.2 km/h 6.4 km/h 79% 0 mm 554 W/m2
09:00 23.8 °C 19.5 °C 1019.9 hPa East 1.6 km/h 6.4 km/h 77% 0 mm 383 W/m2
09:15 23.9 °C 19.2 °C 1019.9 hPa SSW 1.6 km/h 4.8 km/h 75% 0 mm 288 W/m2
09:25 25 °C 19.8 °C 1019.9 hPa North 1.6 km/h 11.3 km/h 73% 0 mm 649 W/m2
09:30 25.7 °C 20.3 °C 1019.9 hPa South 4.8 km/h 9.7 km/h 72% 0 mm 658 W/m2
09:40 26.4 °C 20.2 °C 1019.9 hPa NW 3.2 km/h 19.3 km/h 69% 0 mm 687 W/m2
09:45 26.8 °C 20.1 °C 1019.9 hPa North 3.2 km/h 12.9 km/h 67% 0 mm 696 W/m2
09:50 27.1 °C 20.2 °C 1019.9 hPa NNW 4.8 km/h 12.9 km/h 66% 0 mm 704 W/m2
09:55 27.3 °C 20.2 °C 1019.9 hPa North 4.8 km/h 20.9 km/h 65% 0 mm 709 W/m2
10:00 27.6 °C 19.9 °C 1019.9 hPa North 4.8 km/h 12.9 km/h 63% 0 mm 718 W/m2
10:05 27.8 °C 19.8 °C 1019.9 hPa North 12.9 km/h 20.9 km/h 62% 0 mm 725 W/m2
10:10 27.9 °C 20.3 °C 1019.9 hPa North 4.8 km/h 20.9 km/h 63% 0 mm 741 W/m2
10:15 28.3 °C 20 °C 1019.9 hPa North 11.3 km/h 19.3 km/h 61% 0 mm 752 W/m2
10:20 28.4 °C 19.8 °C 1019.5 hPa North 8 km/h 17.7 km/h 60% 0 mm 767 W/m2
10:25 28.5 °C 20 °C 1019.9 hPa North 9.7 km/h 20.9 km/h 60% 0 mm 778 W/m2
10:30 28.7 °C 19.9 °C 1019.5 hPa North 3.2 km/h 11.3 km/h 59% 0 mm 788 W/m2
10:35 28.9 °C 20.1 °C 1019.5 hPa NNW 8 km/h 12.9 km/h 59% 0 mm 789 W/m2
10:40 28.9 °C 19.8 °C 1019.5 hPa North 8 km/h 14.5 km/h 58% 0 mm 806 W/m2
10:45 29 °C 20.2 °C 1019.5 hPa North 8 km/h 14.5 km/h 59% 0 mm 691 W/m2
10:50 29.3 °C 20.2 °C 1019.5 hPa NNE 8 km/h 14.5 km/h 58% 0 mm 170 W/m2
10:55 29.4 °C 20 °C 1019.2 hPa NNE 8 km/h 16.1 km/h 57% 0 mm 820 W/m2
11:00 29.5 °C 20.1 °C 1019.2 hPa North 4.8 km/h 14.5 km/h 57% 0 mm 839 W/m2
11:10 29.8 °C 20.4 °C 1019.2 hPa NNE 8 km/h 17.7 km/h 57% 0 mm 230 W/m2
11:15 29.8 °C 20.4 °C 1019.2 hPa North 4.8 km/h 19.3 km/h 57% 0 mm 857 W/m2
11:20 30 °C 20.3 °C 1019.2 hPa North 9.7 km/h 20.9 km/h 56% 0 mm 187 W/m2
11:25 30.1 °C 20.7 °C 1019.2 hPa North 4.8 km/h 16.1 km/h 57% 0 mm 876 W/m2
11:30 30.3 °C 20.2 °C 1019.2 hPa NNE 8 km/h 20.9 km/h 55% 0 mm 881 W/m2
11:40 30.4 °C 20.3 °C 1019.2 hPa NNW 8 km/h 14.5 km/h 55% 0 mm 890 W/m2
11:45 30.4 °C 20.3 °C 1018.8 hPa North 9.7 km/h 14.5 km/h 55% 0 mm 894 W/m2
11:50 30.8 °C 20.1 °C 1019.2 hPa North 8 km/h 17.7 km/h 53% 0 mm 898 W/m2
11:55 30.7 °C 20.3 °C 1018.8 hPa North 3.2 km/h 20.9 km/h 54% 0 mm 901 W/m2
12:00 30.9 °C 20.5 °C 1018.8 hPa North 8 km/h 12.9 km/h 54% 0 mm 904 W/m2
12:05 31.1 °C 20.4 °C 1018.8 hPa NNE 4.8 km/h 20.9 km/h 53% 0 mm 907 W/m2
12:10 31.2 °C 20.8 °C 1018.8 hPa North 9.7 km/h 19.3 km/h 54% 0 mm 909 W/m2
12:15 31.4 °C 20.7 °C 1018.8 hPa North 11.3 km/h 22.5 km/h 53% 0 mm 911 W/m2
12:20 31.3 °C 20.6 °C 1018.8 hPa NNE 9.7 km/h 22.5 km/h 53% 0 mm 912 W/m2
12:25 31.4 °C 20.7 °C 1018.5 hPa North 8 km/h 22.5 km/h 53% 0 mm 913 W/m2
12:30 31.3 °C 20.6 °C 1018.5 hPa NNW 4.8 km/h 16.1 km/h 53% 0 mm 914 W/m2
12:35 31.4 °C 20.3 °C 1018.5 hPa North 11.3 km/h 19.3 km/h 52% 0 mm 914 W/m2
12:40 31.5 °C 20.8 °C 1018.5 hPa North 9.7 km/h 20.9 km/h 53% 0 mm 914 W/m2
12:45 31.7 °C 20.6 °C 1018.5 hPa North 8 km/h 22.5 km/h 52% 0 mm 913 W/m2
12:50 31.9 °C 20.9 °C 1018.5 hPa North 9.7 km/h 19.3 km/h 52% 0 mm 912 W/m2
12:55 32 °C 20.3 °C 1018.5 hPa North 8 km/h 20.9 km/h 50% 0 mm 911 W/m2
13:00 32.1 °C 20.4 °C 1018.5 hPa North 9.7 km/h 19.3 km/h 50% 0 mm 909 W/m2
13:05 32.3 °C 20.5 °C 1018.2 hPa North 9.7 km/h 20.9 km/h 50% 0 mm 907 W/m2
13:10 32.4 °C 20.3 °C 1018.2 hPa North 9.7 km/h 22.5 km/h 49% 0 mm 904 W/m2
13:15 32.4 °C 20.1 °C 1018.2 hPa NNE 9.7 km/h 20.9 km/h 48% 0 mm 901 W/m2
13:20 32.5 °C 19.7 °C 1018.2 hPa North 11.3 km/h 22.5 km/h 47% 0 mm 407 W/m2
13:25 32.2 °C 19.8 °C 1018.2 hPa North 9.7 km/h 22.5 km/h 48% 0 mm 482 W/m2
13:30 31.6 °C 19.6 °C 1017.8 hPa North 9.7 km/h 20.9 km/h 49% 0 mm 288 W/m2
13:35 31.7 °C 20 °C 1017.8 hPa North 11.3 km/h 20.9 km/h 50% 0 mm 886 W/m2
13:40 31.9 °C 19.6 °C 1017.8 hPa North 11.3 km/h 25.7 km/h 48% 0 mm 881 W/m2
13:50 32.3 °C 19.9 °C 1017.8 hPa North 9.7 km/h 20.9 km/h 48% 0 mm 870 W/m2
14:00 32.7 °C 19.9 °C 1017.5 hPa North 12.9 km/h 24.1 km/h 47% 0 mm 857 W/m2
14:05 32.7 °C 19.9 °C 1017.5 hPa NNE 9.7 km/h 20.9 km/h 47% 0 mm 851 W/m2
14:10 32.6 °C 20.2 °C 1017.5 hPa North 9.7 km/h 20.9 km/h 48% 0 mm 844 W/m2
14:15 32.8 °C 20 °C 1017.5 hPa North 11.3 km/h 24.1 km/h 47% 0 mm 836 W/m2
14:20 32.9 °C 20.4 °C 1017.5 hPa North 9.7 km/h 19.3 km/h 48% 0 mm 829 W/m2
14:25 33 °C 19.8 °C 1017.2 hPa North 8 km/h 25.7 km/h 46% 0 mm 244 W/m2
14:30 32.7 °C 20.3 °C 1017.2 hPa North 3.2 km/h 20.9 km/h 48% 0 mm 438 W/m2
14:35 32.7 °C 19.2 °C 1017.2 hPa North 12.9 km/h 22.5 km/h 45% 0 mm 803 W/m2
14:40 32.9 °C 20.2 °C 1017.2 hPa North 8 km/h 22.5 km/h 47% 0 mm 794 W/m2
14:45 33 °C 20.2 °C 1017.2 hPa North 4.8 km/h 20.9 km/h 47% 0 mm 258 W/m2
14:50 33 °C 20.2 °C 1017.2 hPa NNE 8 km/h 16.1 km/h 47% 0 mm 265 W/m2
14:55 32.8 °C 18.9 °C 1017.2 hPa North 8 km/h 16.1 km/h 44% 0 mm 765 W/m2
15:00 32.9 °C 19.1 °C 1017.2 hPa NNE 4.8 km/h 16.1 km/h 44% 0 mm 754 W/m2
15:05 33.1 °C 19.6 °C 1017.2 hPa NNE 8 km/h 17.7 km/h 45% 0 mm 744 W/m2
15:10 33.2 °C 19.7 °C 1016.8 hPa North 8 km/h 20.9 km/h 45% 0 mm 358 W/m2
15:15 32.9 °C 19.1 °C 1017.2 hPa North 8 km/h 16.1 km/h 44% 0 mm 200 W/m2
15:20 32.4 °C 18.2 °C 1017.2 hPa North 8 km/h 17.7 km/h 43% 0 mm 162 W/m2
15:25 32 °C 18.6 °C 1017.2 hPa North 1.6 km/h 9.7 km/h 45% 0 mm 191 W/m2
15:30 31.8 °C 18.4 °C 1016.8 hPa NNW 3.2 km/h 9.7 km/h 45% 0 mm 174 W/m2
15:35 31.8 °C 19.1 °C 1016.8 hPa NNE 4.8 km/h 14.5 km/h 47% 0 mm 674 W/m2
15:40 32.1 °C 19.3 °C 1016.8 hPa NNE 4.8 km/h 14.5 km/h 47% 0 mm 558 W/m2
15:45 32.3 °C 18.8 °C 1016.8 hPa NNW 4.8 km/h 12.9 km/h 45% 0 mm 648 W/m2
15:50 32.5 °C 18.7 °C 1016.8 hPa NNW 4.8 km/h 12.9 km/h 44% 0 mm 612 W/m2
15:55 32.5 °C 17.9 °C 1016.8 hPa North 9.7 km/h 16.1 km/h 42% 0 mm 209 W/m2
16:00 32.4 °C 18.2 °C 1016.8 hPa North 3.2 km/h 12.9 km/h 43% 0 mm 185 W/m2
16:05 32.2 °C 18.8 °C 1016.5 hPa North 3.2 km/h 11.3 km/h 45% 0 mm 595 W/m2
16:10 32.5 °C 17.9 °C 1016.5 hPa NNE 3.2 km/h 11.3 km/h 42% 0 mm 562 W/m2
16:15 32.7 °C 18.5 °C 1016.5 hPa NE 1.6 km/h 14.5 km/h 43% 0 mm 567 W/m2
16:20 33 °C 18.3 °C 1016.5 hPa NNE 4.8 km/h 19.3 km/h 42% 0 mm 553 W/m2
16:25 33.1 °C 18.4 °C 1016.5 hPa NE 4.8 km/h 11.3 km/h 42% 0 mm 538 W/m2
16:30 33.2 °C 17.8 °C 1016.5 hPa NE 4.8 km/h 12.9 km/h 40% 0 mm 524 W/m2
16:35 33.3 °C 17.9 °C 1016.5 hPa ENE 11.3 km/h 19.3 km/h 40% 0 mm 509 W/m2
16:45 33 °C 17.2 °C 1016.5 hPa NE 9.7 km/h 19.3 km/h 39% 0 mm 479 W/m2
16:50 32.8 °C 17.4 °C 1016.5 hPa ENE 9.7 km/h 17.7 km/h 40% 0 mm 416 W/m2
16:55 32.6 °C 18 °C 1016.5 hPa East 3.2 km/h 16.1 km/h 42% 0 mm 156 W/m2
17:10 31.5 °C 18.2 °C 1016.5 hPa NE 8 km/h 19.3 km/h 45% 0 mm 174 W/m2
17:15 31.3 °C 17.6 °C 1016.5 hPa ENE 4.8 km/h 16.1 km/h 44% 0 mm 162 W/m2
17:20 31.1 °C 17.4 °C 1016.8 hPa East 4.8 km/h 12.9 km/h 44% 0 mm 372 W/m2
17:30 31.4 °C 18.1 °C 1016.8 hPa East 9.7 km/h 20.9 km/h 45% 0 mm 213 W/m2
17:35 31.3 °C 18.6 °C 1016.8 hPa ESE 9.7 km/h 20.9 km/h 47% 0 mm 168 W/m2
17:40 31.1 °C 18.5 °C 1016.5 hPa ESE 9.7 km/h 22.5 km/h 47% 0 mm 232 W/m2
17:45 31.1 °C 18.8 °C 1016.5 hPa ESE 4.8 km/h 12.9 km/h 48% 0 mm 236 W/m2
17:50 31.1 °C 18.8 °C 1016.5 hPa East 4.8 km/h 11.3 km/h 48% 0 mm 143 W/m2
17:55 30.9 °C 18.3 °C 1016.5 hPa East 3.2 km/h 12.9 km/h 47% 0 mm 104 W/m2
18:10 30.3 °C 17.7 °C 1016.8 hPa ENE 4.8 km/h 11.3 km/h 47% 0 mm 62 W/m2
18:15 30.2 °C 18 °C 1016.8 hPa NE 1.6 km/h 9.7 km/h 48% 0 mm 59 W/m2
18:20 30 °C 18.1 °C 1016.8 hPa ENE 1.6 km/h 8 km/h 49% 0 mm 61 W/m2
18:25 29.9 °C 17.7 °C 1016.8 hPa ENE 1.6 km/h 4.8 km/h 48% 0 mm 78 W/m2
18:30 29.9 °C 18 °C 1016.8 hPa West 1.6 km/h 3.2 km/h 49% 0 mm 92 W/m2
18:35 29.8 °C 18.3 °C 1016.8 hPa WSW 1.6 km/h 3.2 km/h 50% 0 mm 101 W/m2
18:45 29.6 °C 18.1 °C 1016.8 hPa WNW 4.8 km/h 9.7 km/h 50% 0 mm 45 W/m2
18:50 29.3 °C 18.4 °C 1017.2 hPa WNW 4.8 km/h 9.7 km/h 52% 0 mm 33 W/m2
18:55 29 °C 18.4 °C 1017.2 hPa NW 4.8 km/h 16.1 km/h 53% 0 mm 29 W/m2
19:00 28.8 °C 17.9 °C 1017.2 hPa NNW 8 km/h 17.7 km/h 52% 0 mm 32 W/m2
19:05 28.6 °C 18.1 °C 1017.2 hPa NNW 4.8 km/h 16.1 km/h 53% 0 mm 29 W/m2
19:10 28.5 °C 18.3 °C 1017.2 hPa NNW 3.2 km/h 8 km/h 54% 0 mm 28 W/m2
19:15 28.3 °C 18.4 °C 1017.5 hPa NW 3.2 km/h 9.7 km/h 55% 0 mm 25 W/m2
19:25 27.8 °C 18.5 °C 1017.5 hPa WNW 3.2 km/h 8 km/h 57% 0 mm 18 W/m2
19:30 27.5 °C 18.2 °C 1017.8 hPa WNW 3.2 km/h 11.3 km/h 57% 0 mm 14 W/m2
19:35 27.2 °C 17.9 °C 1017.8 hPa WNW 4.8 km/h 9.7 km/h 57% 0 mm 9 W/m2
19:40 27 °C 18.1 °C 1017.8 hPa WNW 3.2 km/h 9.7 km/h 58% 0 mm 5 W/m2
19:45 26.8 °C 17.8 °C 1017.8 hPa West 4.8 km/h 9.7 km/h 58% 0 mm 0 W/m2
19:50 26.6 °C 17.7 °C 1018.2 hPa West 4.8 km/h 9.7 km/h 58% 0 mm 0 W/m2
19:55 26.4 °C 17.7 °C 1017.8 hPa West 4.8 km/h 9.7 km/h 59% 0 mm 0 W/m2
20:00 26.2 °C 17.6 °C 1018.2 hPa West 3.2 km/h 9.7 km/h 59% 0 mm 0 W/m2
20:05 26.1 °C 17.4 °C 1018.2 hPa WNW 3.2 km/h 9.7 km/h 59% 0 mm 0 W/m2
20:10 25.9 °C 17.6 °C 1018.5 hPa WNW 3.2 km/h 6.4 km/h 60% 0 mm 0 W/m2
20:15 25.8 °C 17.4 °C 1018.5 hPa NW 1.6 km/h 6.4 km/h 60% 0 mm 0 W/m2
20:20 25.7 °C 17.9 °C 1018.5 hPa WNW 3.2 km/h 9.7 km/h 62% 0 mm 0 W/m2
20:25 25.5 °C 17.7 °C 1018.5 hPa WNW 3.2 km/h 8 km/h 62% 0 mm 0 W/m2
20:35 25.2 °C 17.7 °C 1018.5 hPa WNW 1.6 km/h 8 km/h 63% 0 mm 0 W/m2
20:40 25.1 °C 17.6 °C 1018.8 hPa WNW 1.6 km/h 4.8 km/h 63% 0 mm 0 W/m2
20:45 25 °C 17.7 °C 1018.8 hPa WNW 3.2 km/h 6.4 km/h 64% 0 mm 0 W/m2
20:50 24.8 °C 17.6 °C 1018.8 hPa WNW 3.2 km/h 4.8 km/h 64% 0 mm 0 W/m2
21:05 24.4 °C 17.4 °C 1018.8 hPa WSW 1.6 km/h 3.2 km/h 65% 0 mm 0 W/m2
21:10 24.1 °C 17.6 °C 1018.8 hPa SSW 3.2 km/h 4.8 km/h 67% 0 mm 0 W/m2
21:15 23.9 °C 17.4 °C 1019.2 hPa Calm   3.2 km/h 67% 0 mm 0 W/m2
21:20 23.6 °C 17.3 °C 1019.2 hPa SW 1.6 km/h 3.2 km/h 68% 0 mm 0 W/m2
21:25 23.4 °C 17.4 °C 1019.2 hPa SSE 3.2 km/h 4.8 km/h 69% 0 mm 0 W/m2
21:30 23.3 °C 17.3 °C 1019.2 hPa Calm   4.8 km/h 69% 0 mm 0 W/m2
21:35 23.2 °C 17.2 °C 1019.2 hPa Calm     69% 0 mm 0 W/m2
21:45 22.9 °C 17.1 °C 1019.2 hPa West 3.2 km/h 4.8 km/h 70% 0 mm 0 W/m2
21:50 22.8 °C 17.5 °C 1019.2 hPa WSW 1.6 km/h 4.8 km/h 72% 0 mm 0 W/m2
22:00 22.6 °C 17.3 °C 1019.2 hPa NW 1.6 km/h 3.2 km/h 72% 0 mm 0 W/m2
22:05 22.5 °C 17.2 °C 1019.2 hPa WNW 1.6 km/h 3.2 km/h 72% 0 mm 0 W/m2
22:10 22.4 °C 17.3 °C 1019.2 hPa WNW 3.2 km/h 6.4 km/h 73% 0 mm 0 W/m2
22:15 22.3 °C 17.2 °C 1019.2 hPa WNW 3.2 km/h 6.4 km/h 73% 0 mm 0 W/m2
22:25 22.3 °C 17.2 °C 1019.2 hPa Calm   3.2 km/h 73% 0 mm 0 W/m2
22:30 22.2 °C 17.1 °C 1019.5 hPa Calm   3.2 km/h 73% 0 mm 0 W/m2
22:35 22.1 °C 17.2 °C 1019.5 hPa Calm   4.8 km/h 74% 0 mm 0 W/m2
22:40 22 °C 17.2 °C 1019.5 hPa NW 1.6 km/h 4.8 km/h 74% 0 mm 0 W/m2
22:45 21.8 °C 16.9 °C 1019.5 hPa West 1.6 km/h 3.2 km/h 74% 0 mm 0 W/m2
22:50 21.6 °C 17 °C 1019.2 hPa SW 3.2 km/h 3.2 km/h 75% 0 mm 0 W/m2
22:55 21.3 °C 16.7 °C 1019.2 hPa SSW 3.2 km/h 6.4 km/h 75% 0 mm 0 W/m2
23:00 21.1 °C 17.1 °C 1019.2 hPa South 4.8 km/h 8 km/h 78% 0 mm 0 W/m2
23:05 20.9 °C 16.9 °C 1019.2 hPa South 1.6 km/h 4.8 km/h 78% 0 mm 0 W/m2
23:10 20.8 °C 17 °C 1019.2 hPa SW 3.2 km/h 4.8 km/h 79% 0 mm 0 W/m2
23:20 20.7 °C 16.9 °C 1019.2 hPa WSW 3.2 km/h 6.4 km/h 79% 0 mm 0 W/m2
23:25 20.7 °C 16.9 °C 1019.2 hPa WSW 3.2 km/h 4.8 km/h 79% 0 mm 0 W/m2
23:30 20.7 °C 17.1 °C 1019.2 hPa West 4.8 km/h 8 km/h 80% 0 mm 0 W/m2
23:35 20.8 °C 17.2 °C 1018.8 hPa WNW 3.2 km/h 8 km/h 80% 0 mm 0 W/m2
23:45 20.8 °C 17 °C 1018.8 hPa SW 1.6 km/h 4.8 km/h 79% 0 mm 0 W/m2
23:50 20.6 °C 17.1 °C 1018.8 hPa WSW 1.6 km/h 6.4 km/h 80% 0 mm 0 W/m2
23:55 20.6 °C 17 °C 1018.8 hPa WSW 3.2 km/h 4.8 km/h 80% 0 mm 0 W/m2
Knjazevac, Serbia
Compliments of Weather Underground - 2 mb